Center Rutland, Vermont
Current Conditions -  °F | °C
As of 5:55 PM on Thursday 23 Oct 2014 (Local Time) from KRUT Reporting Station
Overcast Overcast  
Wind Chill: 38°   Ceiling: 400
Heat Index: 43°   Visibility: 8mi
Dew Point: 43°   Wind: 8mph
Humidity: 100%   Direction: 340°NNW
Pressure: 29.82"   Gusts: NA
Location:  43.6°N, 73.01°W
Report Text: KRUT 232155Z 34007KT 320V020 8SM OVC004 06/06 A2982 RMK AO1
Loading
Personal Weather Stations






























Interactive Weather Map
Tropical Storm Tracking
New forecast layout! Learn more

10-Day Weather Forecast

Advertisements
Track Severe Weather on mobile